Time;durP1;ratioP1;P1;durP2;ratioP2;P2;SDS_P1;SDS_P2;PMS_P1;PMS_P2;Temp;Humidity;BMP_temperature;BMP_pressure;BME280_temperature;BME280_humidity;BME280_pressure;Samples;Min_cycle;Max_cycle;Signal;HPM_P1;HPM_P2
2022/03/03 00:00:15;;;;;;;16.23;12.20;;;;;;;0.47;nan;98373.81;5055934;28;20441;-70
2022/03/03 00:02:41;;;;;;;17.20;12.30;;;;;;;0.40;nan;98368.53;5056050;28;20511;-70
2022/03/03 00:05:09;;;;;;;19.73;12.80;;;;;;;0.46;nan;98375.75;5056133;28;20586;-70
2022/03/03 00:07:35;;;;;;;16.03;12.80;;;;;;;0.44;nan;98385.56;5059767;28;20224;-71
2022/03/03 00:10:02;;;;;;;16.97;11.30;;;;;;;0.28;nan;98378.38;5059543;28;20899;-71
2022/03/03 00:12:29;;;;;;;17.07;12.53;;;;;;;0.26;nan;98377.66;5059807;28;20430;-70
2022/03/03 00:14:55;;;;;;;15.43;11.77;;;;;;;0.21;nan;98371.25;5059778;28;20430;-70
2022/03/03 00:17:21;;;;;;;18.50;12.67;;;;;;;0.19;nan;98381.88;5059775;28;20430;-70
2022/03/03 00:19:48;;;;;;;14.70;11.67;;;;;;;0.18;nan;98383.63;5059644;28;20236;-70
2022/03/03 00:22:15;;;;;;;14.60;11.03;;;;;;;0.18;nan;98374.97;5059676;28;20193;-70
2022/03/03 00:24:42;;;;;;;16.33;12.13;;;;;;;0.10;nan;98372.28;5059277;28;20921;-70
2022/03/03 00:27:08;;;;;;;16.67;11.73;;;;;;;0.08;nan;98372.41;5059482;28;20771;-70
2022/03/03 00:29:34;;;;;;;17.83;12.03;;;;;;;0.03;nan;98370.41;5059452;28;20462;-71
2022/03/03 00:32:02;;;;;;;16.47;11.47;;;;;;;0.08;nan;98376.00;5059124;28;20586;-70
2022/03/03 00:34:28;;;;;;;15.60;12.10;;;;;;;0.10;nan;98367.84;5059431;28;20423;-70
2022/03/03 00:36:54;;;;;;;16.20;11.77;;;;;;;0.06;nan;98376.94;5059383;28;20422;-70
2022/03/03 00:39:21;;;;;;;15.77;12.17;;;;;;;0.11;nan;98371.31;5059297;28;20228;-70
2022/03/03 00:41:47;;;;;;;15.23;12.20;;;;;;;0.08;nan;98377.66;5059295;28;20480;-70
2022/03/03 00:44:13;;;;;;;18.97;12.90;;;;;;;0.09;nan;98373.22;5041478;28;20860;-70
2022/03/03 00:46:40;;;;;;;15.80;12.00;;;;;;;0.00;nan;98371.50;5058905;28;20422;-71
2022/03/03 00:49:06;;;;;;;16.97;12.47;;;;;;;-0.02;nan;98371.66;5059000;28;20482;-70
2022/03/03 00:51:34;;;;;;;16.33;12.03;;;;;;;-0.03;nan;98375.22;5059355;28;20418;-70
2022/03/03 00:54:01;;;;;;;16.27;11.17;;;;;;;-0.07;nan;98376.50;5059066;28;20422;-70
2022/03/03 00:56:27;;;;;;;15.23;12.20;;;;;;;-0.03;nan;98383.06;5058986;28;20724;-70
2022/03/03 00:58:54;;;;;;;15.50;11.77;;;;;;;-0.04;nan;98384.03;5059272;28;20466;-70
2022/03/03 01:01:20;;;;;;;16.53;10.90;;;;;;;-0.04;nan;98372.78;5058528;28;20907;-70
2022/03/03 01:03:47;;;;;;;16.90;12.50;;;;;;;-0.08;nan;98382.66;5058855;28;20465;-70
2022/03/03 01:06:13;;;;;;;19.33;12.43;;;;;;;-0.09;nan;98377.63;5058824;28;20429;-70
2022/03/03 01:08:40;;;;;;;16.77;12.07;;;;;;;-0.05;nan;98379.78;5058887;28;20547;-70
2022/03/03 01:11:08;;;;;;;16.53;12.50;;;;;;;-0.03;nan;98384.84;5058693;28;20441;-70
2022/03/03 01:13:35;;;;;;;15.10;12.50;;;;;;;-0.08;nan;98384.47;5058704;28;20422;-70
2022/03/03 01:16:01;;;;;;;16.20;12.67;;;;;;;-0.16;nan;98395.66;5058313;28;20730;-70
2022/03/03 01:18:28;;;;;;;17.20;12.67;;;;;;;-0.09;nan;98394.09;5057811;28;20457;-70
2022/03/03 01:20:55;;;;;;;15.63;12.30;;;;;;;0.19;nan;98387.09;5058230;28;20425;-70
2022/03/03 01:23:22;;;;;;;17.03;11.97;;;;;;;0.23;nan;98376.19;5058127;28;20435;-70
2022/03/03 01:25:49;;;;;;;20.50;12.80;;;;;;;0.03;nan;98375.63;5058424;28;20430;-70
2022/03/03 01:28:15;;;;;;;22.17;12.57;;;;;;;-0.01;nan;98365.44;5058486;28;20478;-71
2022/03/03 01:30:42;;;;;;;17.47;12.30;;;;;;;-0.04;nan;98357.91;5058077;28;20425;-70
2022/03/03 01:33:08;;;;;;;18.37;12.50;;;;;;;-0.15;nan;98359.88;5058308;28;20430;-70
2022/03/03 01:35:35;;;;;;;16.03;12.83;;;;;;;-0.17;nan;98351.38;5058521;28;20442;-70
2022/03/03 01:38:01;;;;;;;14.07;11.87;;;;;;;-0.26;nan;98344.41;5058127;28;20450;-70
2022/03/03 01:40:28;;;;;;;15.13;11.90;;;;;;;-0.30;nan;98333.41;5058119;28;20818;-70
2022/03/03 01:42:54;;;;;;;15.77;11.57;;;;;;;-0.29;nan;98344.69;5058145;28;20426;-70
2022/03/03 01:45:21;;;;;;;15.83;12.50;;;;;;;-0.19;nan;98343.69;5058083;28;20496;-70
2022/03/03 01:47:48;;;;;;;17.77;12.90;;;;;;;-0.10;nan;98347.19;5057843;28;20462;-71
2022/03/03 01:50:14;;;;;;;17.77;13.13;;;;;;;-0.09;nan;98347.06;5058244;28;20434;-70
2022/03/03 01:52:41;;;;;;;18.40;12.47;;;;;;;-0.09;nan;98349.66;5057925;28;20423;-70
2022/03/03 01:55:09;;;;;;;17.87;13.03;;;;;;;-0.11;nan;98343.78;5057871;28;20438;-70
2022/03/03 01:57:35;;;;;;;19.27;14.07;;;;;;;-0.11;nan;98346.41;5057702;28;20877;-71
2022/03/03 02:00:04;;;;;;;19.97;14.20;;;;;;;-0.15;nan;98345.03;5057273;28;20434;-71
2022/03/03 02:02:31;;;;;;;20.97;13.63;;;;;;;-0.17;nan;98346.16;5057737;28;20418;-70
2022/03/03 02:04:57;;;;;;;19.70;12.93;;;;;;;-0.19;nan;98341.06;5057689;28;20438;-70
2022/03/03 02:07:24;;;;;;;19.97;12.83;;;;;;;-0.22;nan;98341.34;5057608;28;20441;-70
2022/03/03 02:09:51;;;;;;;19.53;13.40;;;;;;;-0.23;nan;98339.72;5057232;28;20461;-70
2022/03/03 02:12:17;;;;;;;20.90;13.50;;;;;;;-0.30;nan;98345.66;5057273;28;20441;-70
2022/03/03 02:14:48;;;;;;;20.73;13.93;;;;;;;-0.37;nan;98345.41;5057192;28;20870;-71
2022/03/03 02:17:15;;;;;;;19.97;14.20;;;;;;;-0.28;nan;98346.31;5057535;28;20763;-70
2022/03/03 02:19:42;;;;;;;21.60;14.50;;;;;;;-0.37;nan;98348.03;5057348;28;20942;-70
2022/03/03 02:22:10;;;;;;;19.77;13.53;;;;;;;-0.36;nan;98349.66;5057328;28;20445;-70
2022/03/03 02:24:38;;;;;;;15.87;12.93;;;;;;;-0.34;nan;98352.97;5057039;28;20870;-70
2022/03/03 02:27:06;;;;;;;21.87;14.03;;;;;;;-0.36;nan;98339.22;5057319;28;20419;-70
2022/03/03 02:29:33;;;;;;;19.93;13.77;;;;;;;-0.33;nan;98343.31;5056179;28;20478;-70
2022/03/03 02:32:00;;;;;;;18.30;13.67;;;;;;;-0.32;nan;98337.13;5057179;28;20448;-70
2022/03/03 02:34:27;;;;;;;21.20;14.37;;;;;;;-0.38;nan;98341.16;5056851;28;20438;-70
2022/03/03 02:36:53;;;;;;;19.53;13.93;;;;;;;-0.48;nan;98343.00;5057125;28;20441;-70
2022/03/03 02:39:20;;;;;;;18.17;13.67;;;;;;;-0.43;nan;98339.94;5057002;28;20451;-70
2022/03/03 02:41:46;;;;;;;22.03;14.90;;;;;;;-0.44;nan;98354.78;5057013;28;20441;-70
2022/03/03 02:44:13;;;;;;;21.30;14.30;;;;;;;-0.46;nan;98351.50;5057002;28;20426;-70
2022/03/03 02:46:39;;;;;;;19.07;14.43;;;;;;;-0.44;nan;98348.75;5056924;28;20446;-71
2022/03/03 02:49:06;;;;;;;20.77;15.03;;;;;;;-0.44;nan;98352.16;5057060;28;20470;-70
2022/03/03 02:51:32;;;;;;;23.33;14.80;;;;;;;-0.50;nan;98341.47;5056542;28;20889;-70
2022/03/03 02:53:58;;;;;;;22.27;14.17;;;;;;;-0.54;nan;98335.72;5056850;28;20426;-70
2022/03/03 02:56:25;;;;;;;19.87;14.20;;;;;;;-0.52;nan;98341.63;5056504;28;20869;-70
2022/03/03 02:58:50;;;;;;;18.90;13.87;;;;;;;-0.59;nan;98337.09;5056732;28;20454;-70
2022/03/03 03:01:16;;;;;;;20.60;14.87;;;;;;;-0.60;nan;98344.13;5056455;28;20450;-70
2022/03/03 03:03:43;;;;;;;20.80;15.53;;;;;;;-0.63;nan;98340.97;5056663;28;20228;-71
2022/03/03 03:06:13;;;;;;;22.53;14.33;;;;;;;-0.63;nan;98340.97;5056664;28;20434;-70
2022/03/03 03:08:40;;;;;;;19.10;14.10;;;;;;;-0.59;nan;98327.47;5056527;28;20478;-70
2022/03/03 03:11:06;;;;;;;19.73;14.03;;;;;;;-0.65;nan;98319.41;5057124;28;20439;-70
2022/03/03 03:13:32;;;;;;;22.40;15.20;;;;;;;-0.65;nan;98325.47;5056531;28;20438;-70
2022/03/03 03:15:59;;;;;;;20.07;14.20;;;;;;;-0.68;nan;98314.44;5056543;28;20468;-71
2022/03/03 03:18:25;;;;;;;20.93;14.50;;;;;;;-0.67;nan;98319.53;5056398;28;20450;-70
2022/03/03 03:20:53;;;;;;;19.40;15.20;;;;;;;-0.70;nan;98317.22;5056460;28;20434;-70
2022/03/03 03:23:22;;;;;;;18.37;13.73;;;;;;;-0.66;nan;98321.22;5056413;28;20427;-70
2022/03/03 03:25:49;;;;;;;22.00;14.30;;;;;;;-0.71;nan;98319.97;5056332;28;20430;-70
2022/03/03 03:28:17;;;;;;;20.97;13.83;;;;;;;-0.67;nan;98318.72;5056134;28;20943;-70
2022/03/03 03:30:44;;;;;;;18.33;14.27;;;;;;;-0.72;nan;98306.09;5056272;28;20430;-70
2022/03/03 03:33:10;;;;;;;21.83;14.07;;;;;;;-0.72;nan;98303.47;5056257;28;20441;-70
2022/03/03 03:35:37;;;;;;;18.23;14.33;;;;;;;-0.73;nan;98308.84;5056222;28;20437;-70
2022/03/03 03:38:04;;;;;;;18.93;14.40;;;;;;;-0.79;nan;98301.59;5055907;28;20446;-70
2022/03/03 03:40:31;;;;;;;21.40;15.00;;;;;;;-0.69;nan;98299.75;5057306;28;20438;-70
2022/03/03 03:42:58;;;;;;;20.03;14.60;;;;;;;-0.63;nan;98294.78;5060039;28;20866;-70
2022/03/03 03:45:24;;;;;;;20.40;14.50;;;;;;;-0.74;nan;98287.16;5060336;28;20430;-70
2022/03/03 03:47:50;;;;;;;20.23;14.83;;;;;;;-0.79;nan;98289.38;5059852;28;20424;-70
2022/03/03 03:50:17;;;;;;;23.03;15.03;;;;;;;-0.81;nan;98285.25;5060206;28;20434;-70
2022/03/03 03:52:44;;;;;;;21.60;15.10;;;;;;;-0.80;nan;98284.28;5060917;28;20418;-70
2022/03/03 03:55:12;;;;;;;21.47;14.73;;;;;;;-0.88;nan;98284.19;5060076;28;20460;-70
2022/03/03 03:57:39;;;;;;;19.70;15.00;;;;;;;-0.79;nan;98280.72;5060038;28;20438;-70
2022/03/03 04:00:15;;;;;;;20.57;14.80;;;;;;;-0.80;nan;98282.47;5059780;28;20444;-70
2022/03/03 04:02:45;;;;;;;21.30;15.10;;;;;;;-0.77;nan;98281.41;5060043;28;20426;-70
2022/03/03 04:05:13;;;;;;;19.57;14.50;;;;;;;-0.77;nan;98281.41;5059956;28;20437;-70
2022/03/03 04:07:41;;;;;;;19.20;14.73;;;;;;;-0.79;nan;98281.53;5059694;28;20521;-70
2022/03/03 04:10:08;;;;;;;22.07;15.70;;;;;;;-0.77;nan;98287.44;5059800;28;20438;-70
2022/03/03 04:12:34;;;;;;;19.30;14.17;;;;;;;-0.72;nan;98281.81;5059418;28;20434;-70
2022/03/03 04:15:00;;;;;;;18.40;15.03;;;;;;;-0.73;nan;98275.75;5059754;28;20441;-70
2022/03/03 04:17:27;;;;;;;21.73;15.03;;;;;;;-0.74;nan;98273.28;5059685;28;20440;-70
2022/03/03 04:19:53;;;;;;;21.17;14.90;;;;;;;-0.69;nan;98282.31;5059525;28;20465;-70
2022/03/03 04:22:20;;;;;;;20.47;14.97;;;;;;;-0.72;nan;98274.78;5059911;28;20423;-70
2022/03/03 04:24:49;;;;;;;24.03;15.13;;;;;;;-0.71;nan;98278.22;5059506;28;20483;-70
2022/03/03 04:27:15;;;;;;;22.13;15.03;;;;;;;-0.74;nan;98270.66;5059558;28;20429;-70
2022/03/03 04:29:42;;;;;;;22.10;14.80;;;;;;;-0.83;nan;98269.75;5059326;28;20481;-70
2022/03/03 04:32:09;;;;;;;21.07;14.77;;;;;;;-0.85;nan;98263.03;5059274;28;20731;-71
2022/03/03 04:34:36;;;;;;;25.90;16.00;;;;;;;-0.94;nan;98259.47;5059245;28;20725;-70
2022/03/03 04:37:02;;;;;;;22.37;15.60;;;;;;;-0.88;nan;98252.84;5059090;28;20717;-70
2022/03/03 04:39:29;;;;;;;21.27;15.40;;;;;;;-0.84;nan;98257.66;5059070;28;20453;-70
2022/03/03 04:41:55;;;;;;;22.17;15.57;;;;;;;-0.87;nan;98260.56;5058730;28;20868;-71
2022/03/03 04:44:21;;;;;;;25.67;15.53;;;;;;;-0.89;nan;98257.25;5058967;28;20435;-70
2022/03/03 04:46:48;;;;;;;19.60;14.90;;;;;;;-0.91;nan;98264.41;5059232;28;20445;-70
2022/03/03 04:49:14;;;;;;;19.90;14.53;;;;;;;-0.94;nan;98250.81;5058981;28;20484;-70
2022/03/03 04:51:41;;;;;;;21.13;15.67;;;;;;;-0.91;nan;98255.75;5058247;28;20430;-70
2022/03/03 04:54:11;;;;;;;20.23;14.83;;;;;;;-1.01;nan;98250.56;5058672;28;20441;-70
2022/03/03 04:56:39;;;;;;;24.43;16.40;;;;;;;-0.95;nan;98257.81;5058991;28;20422;-70
2022/03/03 04:59:06;;;;;;;24.03;15.63;;;;;;;-0.95;nan;98257.81;5058489;28;20898;-71
2022/03/03 05:01:33;;;;;;;21.63;15.97;;;;;;;-0.93;nan;98255.91;5058388;28;20450;-70
2022/03/03 05:03:59;;;;;;;22.53;16.00;;;;;;;-0.98;nan;98260.72;5058172;28;20858;-70
2022/03/03 05:06:26;;;;;;;22.67;15.50;;;;;;;-1.05;nan;98257.03;5058228;28;20513;-70
2022/03/03 05:08:52;;;;;;;21.23;14.73;;;;;;;-1.03;nan;98257.69;5058377;28;20478;-70
2022/03/03 05:11:19;;;;;;;22.37;14.70;;;;;;;-1.05;nan;98249.22;5058349;28;20426;-71
2022/03/03 05:13:46;;;;;;;20.53;14.87;;;;;;;-1.17;nan;98245.13;5058218;28;20468;-70
2022/03/03 05:16:12;;;;;;;21.60;14.70;;;;;;;-1.18;nan;98234.81;5058445;28;20441;-70
2022/03/03 05:18:39;;;;;;;28.20;16.60;;;;;;;-1.15;nan;98232.78;5058406;28;20442;-70
2022/03/03 05:21:05;;;;;;;21.83;15.13;;;;;;;-1.23;nan;98232.66;5058236;28;20438;-71
2022/03/03 05:23:31;;;;;;;23.97;15.43;;;;;;;-1.24;nan;98227.56;5058075;28;20433;-70
2022/03/03 05:25:58;;;;;;;25.87;15.83;;;;;;;-1.22;nan;98220.44;5058569;28;20423;-70
2022/03/03 05:28:24;;;;;;;21.87;15.50;;;;;;;-1.23;nan;98224.81;5058035;28;20478;-70
2022/03/03 05:30:50;;;;;;;22.67;16.47;;;;;;;-1.26;nan;98222.50;5058272;28;20434;-71
2022/03/03 05:33:17;;;;;;;23.27;16.23;;;;;;;-1.25;nan;98218.94;5058505;28;20430;-70
2022/03/03 05:35:47;;;;;;;23.83;15.67;;;;;;;-1.35;nan;98220.72;5058153;28;20434;-70
2022/03/03 05:38:13;;;;;;;23.07;15.53;;;;;;;-1.28;nan;98229.66;5057847;28;20756;-70
2022/03/03 05:40:40;;;;;;;23.83;15.23;;;;;;;-1.32;nan;98230.06;5057622;28;20727;-70
2022/03/03 05:43:09;;;;;;;23.73;16.17;;;;;;;-1.40;nan;98237.78;5057701;28;20434;-70
2022/03/03 05:45:36;;;;;;;29.13;16.67;;;;;;;-1.31;nan;98250.78;5057781;28;20704;-71
2022/03/03 05:48:02;;;;;;;23.10;15.87;;;;;;;-1.18;nan;98243.47;5057409;28;20756;-70
2022/03/03 05:50:29;;;;;;;26.07;16.10;;;;;;;-1.27;nan;98251.31;5057712;28;20470;-70
2022/03/03 05:52:59;;;;;;;23.97;15.47;;;;;;;-1.27;nan;98241.72;5057676;28;20430;-70
2022/03/03 05:55:26;;;;;;;26.17;15.30;;;;;;;-1.28;nan;98239.25;5057248;28;20861;-70
2022/03/03 05:57:55;;;;;;;22.77;15.30;;;;;;;-1.21;nan;98246.34;5057718;28;20745;-70
2022/03/03 06:00:22;;;;;;;22.43;15.50;;;;;;;-1.18;nan;98245.25;5057281;28;20446;-70
2022/03/03 06:02:53;;;;;;;25.77;15.77;;;;;;;-1.20;nan;98241.97;5056884;28;20438;-70
2022/03/03 06:05:24;;;;;;;22.50;15.30;;;;;;;-1.28;nan;98239.25;5056604;28;20736;-70
2022/03/03 06:07:53;;;;;;;24.50;15.37;;;;;;;-1.30;nan;98243.78;5056926;28;20434;-70
2022/03/03 06:10:23;;;;;;;21.33;15.13;;;;;;;-1.29;nan;98230.63;5057057;28;20473;-70
2022/03/03 06:12:51;;;;;;;24.23;15.73;;;;;;;-1.26;nan;98235.53;5057589;28;20484;-70
2022/03/03 06:15:21;;;;;;;24.93;15.67;;;;;;;-1.20;nan;98232.38;5056842;28;20537;-70
2022/03/03 06:17:49;;;;;;;24.43;15.47;;;;;;;-1.23;nan;98235.25;5056922;28;20430;-70
2022/03/03 06:20:18;;;;;;;24.80;15.67;;;;;;;-1.19;nan;98238.41;5056841;28;20426;-70
2022/03/03 06:22:44;;;;;;;21.80;15.20;;;;;;;-1.17;nan;98232.06;5056602;28;20513;-71
2022/03/03 06:25:11;;;;;;;22.93;16.60;;;;;;;-1.11;nan;98246.34;5056374;28;20431;-71
2022/03/03 06:27:37;;;;;;;25.77;16.33;;;;;;;-1.04;nan;98243.03;5056748;28;20427;-71
2022/03/03 06:30:05;;;;;;;29.27;17.23;;;;;;;-1.09;nan;98242.63;5056585;28;20466;-71
2022/03/03 06:32:32;;;;;;;24.93;17.07;;;;;;;-0.98;nan;98237.22;5056777;28;20473;-71
2022/03/03 06:34:58;;;;;;;26.30;16.53;;;;;;;-0.96;nan;98229.25;5056687;28;20430;-71
2022/03/03 06:37:25;;;;;;;27.87;16.80;;;;;;;-0.93;nan;98222.00;5056379;28;20430;-71
2022/03/03 06:39:51;;;;;;;24.30;16.90;;;;;;;-0.90;nan;98223.50;5056121;28;20869;-71
2022/03/03 06:42:18;;;;;;;24.60;16.60;;;;;;;-0.86;nan;98217.03;5056361;28;20437;-71
2022/03/03 06:44:44;;;;;;;24.33;17.27;;;;;;;-0.81;nan;98214.78;5056288;28;20418;-71
2022/03/03 06:47:10;;;;;;;22.80;16.33;;;;;;;-0.74;nan;98208.84;5056666;28;20427;-71
2022/03/03 06:49:37;;;;;;;25.20;16.43;;;;;;;-0.72;nan;98201.69;5056180;28;20478;-71
2022/03/03 06:52:06;;;;;;;29.33;16.63;;;;;;;-0.66;nan;98185.47;5056309;28;20430;-71
2022/03/03 06:54:34;;;;;;;23.33;16.13;;;;;;;-0.59;nan;98180.44;5056009;28;20422;-70
2022/03/03 06:57:00;;;;;;;25.87;16.47;;;;;;;-0.62;nan;98163.28;5056621;28;20423;-71
2022/03/03 06:59:30;;;;;;;26.70;16.87;;;;;;;-0.63;nan;98153.81;5056364;28;20465;-71
2022/03/03 07:01:59;;;;;;;25.40;16.97;;;;;;;-0.58;nan;98156.00;5056093;28;20476;-71
2022/03/03 07:04:26;;;;;;;21.63;16.10;;;;;;;-0.58;nan;98142.94;5055864;28;20441;-71
2022/03/03 07:06:53;;;;;;;25.00;16.10;;;;;;;-0.47;nan;98154.00;5056081;28;20440;-71
2022/03/03 07:09:19;;;;;;;27.50;16.77;;;;;;;-0.34;nan;98157.06;5061838;28;20480;-71
2022/03/03 07:11:47;;;;;;;23.83;14.77;;;;;;;-0.15;nan;98172.59;5067704;28;20459;-71
2022/03/03 07:14:15;;;;;;;27.50;16.20;;;;;;;-0.10;nan;98167.75;5076230;28;20429;-71
2022/03/03 07:17:09;;;;;;;24.03;15.00;;;;;;;0.12;nan;98173.50;5075703;28;20428;-71
2022/03/03 07:20:02;;;;;;;26.07;16.60;;;;;;;0.11;nan;98180.50;5075671;28;20749;-71
2022/03/03 07:22:45;;;;;;;23.73;15.03;;;;;;;0.28;nan;98191.91;5075612;28;20537;-70
2022/03/03 07:25:15;;;;;;;21.70;15.87;;;;;;;0.38;nan;98203.09;5075824;28;20421;-71
2022/03/03 07:27:46;;;;;;;25.23;16.00;;;;;;;0.40;nan;98190.69;5076010;28;20421;-70
2022/03/03 07:30:17;;;;;;;22.57;16.20;;;;;;;0.38;nan;98184.78;5075877;28;20462;-71
2022/03/03 07:33:05;;;;;;;30.17;17.17;;;;;;;0.44;nan;98192.03;5075447;28;20428;-70
2022/03/03 07:35:34;;;;;;;24.07;16.37;;;;;;;0.51;nan;98201.72;5075500;28;20839;-70
2022/03/03 07:38:07;;;;;;;24.27;16.63;;;;;;;0.52;nan;98199.91;5075698;28;20527;-70
2022/03/03 07:40:34;;;;;;;27.07;16.90;;;;;;;0.57;nan;98206.34;5075471;28;20413;-71
2022/03/03 07:43:01;;;;;;;25.37;16.50;;;;;;;0.67;nan;98208.88;5076010;28;20728;-71
2022/03/03 07:45:29;;;;;;;32.87;17.87;;;;;;;0.80;nan;98202.25;5075809;28;20433;-71
2022/03/03 07:47:56;;;;;;;25.33;18.23;;;;;;;0.77;nan;98207.78;5075738;28;20461;-71
2022/03/03 07:50:24;;;;;;;26.23;17.67;;;;;;;0.82;nan;98208.16;5075461;28;20650;-71
2022/03/03 07:52:51;;;;;;;25.97;17.40;;;;;;;0.86;nan;98208.66;5075325;28;20599;-70
2022/03/03 07:55:18;;;;;;;23.87;17.13;;;;;;;0.94;nan;98200.88;5076076;28;20429;-70
2022/03/03 07:58:00;;;;;;;29.80;18.47;;;;;;;0.98;nan;98199.59;5075859;28;20201;-70
2022/03/03 08:00:35;;;;;;;26.30;18.23;;;;;;;0.99;nan;98203.84;5075988;28;20239;-70
2022/03/03 08:03:08;;;;;;;26.60;17.73;;;;;;;1.04;nan;98212.03;5075714;28;20196;-70
2022/03/03 08:05:36;;;;;;;26.70;17.63;;;;;;;1.12;nan;98202.41;5075640;28;20235;-70
2022/03/03 08:08:03;;;;;;;25.33;16.70;;;;;;;1.15;nan;98189.03;5075399;28;20224;-70
2022/03/03 08:10:32;;;;;;;25.80;17.57;;;;;;;1.17;nan;98196.72;5075493;28;20235;-70
2022/03/03 08:13:00;;;;;;;27.70;17.30;;;;;;;1.30;nan;98208.38;5075434;28;20616;-70
2022/03/03 08:15:27;;;;;;;26.13;18.00;;;;;;;1.40;nan;98189.94;5075271;28;20207;-70
2022/03/03 08:17:55;;;;;;;26.37;17.60;;;;;;;1.47;nan;98190.94;5075335;28;20529;-70
2022/03/03 08:20:23;;;;;;;23.27;16.73;;;;;;;1.55;nan;98185.72;5075729;28;20185;-69
2022/03/03 08:22:50;;;;;;;27.93;17.60;;;;;;;1.59;nan;98187.88;5075723;28;20199;-70
2022/03/03 08:25:17;;;;;;;28.30;16.30;;;;;;;1.74;nan;98193.31;5075828;28;20243;-71
2022/03/03 08:27:43;;;;;;;24.17;16.53;;;;;;;2.01;nan;98193.84;5076653;28;20504;-70
2022/03/03 08:30:12;;;;;;;26.70;18.80;;;;;;;2.00;nan;98188.78;5079321;28;20208;-70
2022/03/03 08:32:49;;;;;;;23.20;16.97;;;;;;;2.13;nan;98184.69;5079668;28;20189;-70
2022/03/03 08:35:19;;;;;;;23.93;17.30;;;;;;;2.23;nan;98193.22;5078942;28;20465;-70
2022/03/03 08:37:53;;;;;;;20.33;16.50;;;;;;;2.35;nan;98191.88;5079095;28;20193;-70
2022/03/03 08:40:22;;;;;;;22.53;16.83;;;;;;;2.35;nan;98197.13;5078797;28;20583;-70
2022/03/03 08:42:56;;;;;;;24.27;15.77;;;;;;;2.47;nan;98200.25;5078844;28;20207;-70
2022/03/03 08:45:28;;;;;;;23.27;16.67;;;;;;;2.56;nan;98189.59;5079553;28;20292;-70
2022/03/03 08:48:06;;;;;;;24.40;15.97;;;;;;;2.56;nan;98199.25;5078755;28;20310;-70
2022/03/03 08:50:34;;;;;;;24.00;15.93;;;;;;;2.59;nan;98197.16;5078848;28;20517;-69
2022/03/03 08:53:01;;;;;;;21.80;15.93;;;;;;;2.65;nan;98203.53;5078913;28;20189;-70
2022/03/03 08:55:31;;;;;;;22.63;16.07;;;;;;;2.54;nan;98191.59;5078803;28;20194;-70
2022/03/03 08:57:58;;;;;;;22.43;17.00;;;;;;;2.73;nan;98198.25;5078532;28;20220;-70
2022/03/03 09:00:26;;;;;;;21.30;16.73;;;;;;;2.69;nan;98202.19;5078280;28;20208;-70
2022/03/03 09:02:52;;;;;;;24.83;16.40;;;;;;;2.76;nan;98198.75;5078398;28;20193;-70
2022/03/03 09:05:20;;;;;;;22.60;16.50;;;;;;;2.82;nan;98219.09;5078008;28;20288;-70
2022/03/03 09:07:47;;;;;;;24.47;16.03;;;;;;;2.82;nan;98200.72;5077964;28;20189;-70
2022/03/03 09:10:14;;;;;;;20.00;15.80;;;;;;;2.83;nan;98194.47;5078328;28;20212;-70
2022/03/03 09:12:41;;;;;;;22.93;16.43;;;;;;;2.91;nan;98202.34;5078128;28;20666;-70
2022/03/03 09:15:09;;;;;;;23.03;16.07;;;;;;;3.03;nan;98194.94;5078251;28;20193;-70
2022/03/03 09:17:36;;;;;;;20.20;15.80;;;;;;;3.13;nan;98192.94;5078091;28;20196;-70
2022/03/03 09:20:06;;;;;;;24.80;17.80;;;;;;;3.12;nan;98196.53;5077955;28;20584;-70
2022/03/03 09:22:33;;;;;;;21.87;16.73;;;;;;;3.25;nan;98194.22;5078039;28;20189;-71
2022/03/03 09:24:59;;;;;;;19.87;15.43;;;;;;;3.50;nan;98190.47;5077719;28;20576;-70
2022/03/03 09:27:26;;;;;;;20.57;15.80;;;;;;;3.56;nan;98192.41;5078338;28;20197;-70
2022/03/03 09:29:52;;;;;;;21.93;16.07;;;;;;;3.92;nan;98185.63;5077514;28;20608;-70
2022/03/03 09:32:19;;;;;;;25.00;16.13;;;;;;;3.81;nan;98188.69;5077801;28;20198;-70
2022/03/03 09:34:46;;;;;;;21.60;16.27;;;;;;;3.92;nan;98190.91;5078147;28;20215;-70
2022/03/03 09:37:13;;;;;;;20.77;15.73;;;;;;;3.77;nan;98197.91;5077926;28;20205;-71
2022/03/03 09:39:40;;;;;;;21.93;15.90;;;;;;;4.04;nan;98202.66;5077317;28;20224;-70
2022/03/03 09:42:08;;;;;;;19.80;15.93;;;;;;;4.12;nan;98198.16;5077392;28;20563;-70
2022/03/03 09:44:34;;;;;;;18.33;15.57;;;;;;;4.25;nan;98198.41;5077793;28;20200;-69
2022/03/03 09:47:01;;;;;;;21.97;14.63;;;;;;;4.54;nan;98190.63;5077545;28;20200;-70
2022/03/03 09:49:27;;;;;;;21.73;15.10;;;;;;;4.48;nan;98193.13;5077181;28;20227;-70
2022/03/03 09:51:54;;;;;;;19.20;15.33;;;;;;;4.46;nan;98190.69;5077257;28;20199;-72
2022/03/03 09:54:20;;;;;;;19.90;15.23;;;;;;;4.83;nan;98181.94;5077054;28;20197;-72
2022/03/03 09:56:47;;;;;;;18.63;14.80;;;;;;;4.79;nan;98185.94;5077760;28;20192;-72
2022/03/03 09:59:14;;;;;;;17.30;14.70;;;;;;;4.79;nan;98180.69;5077666;28;20229;-71
2022/03/03 10:01:41;;;;;;;21.10;15.43;;;;;;;4.92;nan;98180.84;5077071;28;20216;-71
2022/03/03 10:04:25;;;;;;;20.73;14.93;;;;;;;5.25;nan;98184.78;5077036;28;20509;-72
2022/03/03 10:06:52;;;;;;;18.63;14.40;;;;;;;5.19;nan;98180.22;5077400;28;20248;-71
2022/03/03 10:09:19;;;;;;;17.97;14.23;;;;;;;5.31;nan;98187.53;5077171;28;20221;-72
2022/03/03 10:11:48;;;;;;;18.17;15.03;;;;;;;5.38;nan;98179.69;5077164;28;20204;-72
2022/03/03 10:14:36;;;;;;;20.57;14.73;;;;;;;5.49;nan;98177.41;5077281;28;20200;-72
2022/03/03 10:17:03;;;;;;;21.03;15.53;;;;;;;5.66;nan;98176.19;5076995;28;20204;-72
2022/03/03 10:19:30;;;;;;;22.23;15.23;;;;;;;5.48;nan;98182.88;5076626;28;20302;-72
2022/03/03 10:21:56;;;;;;;20.40;14.93;;;;;;;5.42;nan;98181.78;5076954;28;20188;-72
2022/03/03 10:24:29;;;;;;;17.17;12.87;;;;;;;5.67;nan;98171.72;5076593;28;20611;-72
2022/03/03 10:27:01;;;;;;;16.60;14.10;;;;;;;5.91;nan;98172.25;5076441;28;20193;-71
2022/03/03 10:29:28;;;;;;;16.47;13.07;;;;;;;6.20;nan;98168.69;5076678;28;20220;-72
2022/03/03 10:31:57;;;;;;;16.67;13.20;;;;;;;6.29;nan;98172.84;5076800;28;20200;-72
2022/03/03 10:34:30;;;;;;;17.87;13.53;;;;;;;6.21;nan;98167.69;5076786;28;20200;-72
2022/03/03 10:37:04;;;;;;;17.23;13.57;;;;;;;5.76;nan;98173.25;5076323;28;20584;-72
2022/03/03 10:39:48;;;;;;;17.33;13.37;;;;;;;5.96;nan;98166.41;5076522;28;20229;-72
2022/03/03 10:42:18;;;;;;;19.07;14.10;;;;;;;6.30;nan;98172.66;5076904;28;20188;-72
2022/03/03 10:44:44;;;;;;;16.37;14.03;;;;;;;6.39;nan;98178.63;5076770;28;20208;-72
2022/03/03 10:47:13;;;;;;;18.03;12.97;;;;;;;6.52;nan;98165.53;5076344;28;20522;-72
2022/03/03 10:49:42;;;;;;;19.33;14.63;;;;;;;6.37;nan;98173.53;5075646;28;20235;-72
2022/03/03 10:52:26;;;;;;;15.97;14.20;;;;;;;6.49;nan;98161.44;5076433;28;20189;-73
2022/03/03 10:54:59;;;;;;;16.73;13.90;;;;;;;6.58;nan;98155.03;5076952;28;20603;-72
2022/03/03 10:57:35;;;;;;;17.37;14.77;;;;;;;6.76;nan;98152.72;5076061;28;20617;-72
2022/03/03 11:00:12;;;;;;;25.40;14.40;;;;;;;6.94;nan;98153.06;5075874;28;20188;-72
2022/03/03 11:02:41;;;;;;;18.20;14.43;;;;;;;6.75;nan;98155.56;5076300;28;20239;-72
2022/03/03 11:05:10;;;;;;;19.20;14.00;;;;;;;6.95;nan;98149.38;5076409;28;20196;-72
2022/03/03 11:07:38;;;;;;;17.73;14.23;;;;;;;7.04;nan;98144.75;5076062;28;20184;-72
2022/03/03 11:10:06;;;;;;;18.33;14.27;;;;;;;6.99;nan;98145.34;5076002;28;20220;-72
2022/03/03 11:12:32;;;;;;;18.00;12.80;;;;;;;7.39;nan;98138.44;5075737;28;20188;-71
2022/03/03 11:15:00;;;;;;;14.57;12.57;;;;;;;7.53;nan;98121.59;5076014;28;20521;-71
2022/03/03 11:17:27;;;;;;;16.57;14.10;;;;;;;7.61;nan;98119.59;5075730;28;20200;-71
2022/03/03 11:19:58;;;;;;;19.57;13.93;;;;;;;7.59;nan;98113.69;5076243;28;20231;-71
2022/03/03 11:22:24;;;;;;;18.47;13.60;;;;;;;7.33;nan;98115.44;5075990;28;20190;-71
2022/03/03 11:24:52;;;;;;;17.83;14.33;;;;;;;7.38;nan;98103.22;5076176;28;20197;-71
2022/03/03 11:27:18;;;;;;;18.33;14.40;;;;;;;7.41;nan;98096.72;5076078;28;20197;-71
2022/03/03 11:30:26;;;;;;;19.90;13.00;;;;;;;7.56;nan;98090.28;5075737;28;20227;-71
2022/03/03 11:33:26;;;;;;;17.13;13.20;;;;;;;7.75;nan;98088.72;5075937;28;20276;-71
2022/03/03 11:35:53;;;;;;;18.20;13.73;;;;;;;7.43;nan;98090.22;5075657;28;20577;-71
2022/03/03 11:38:23;;;;;;;18.30;13.63;;;;;;;7.38;nan;98081.28;5075747;28;20678;-71
2022/03/03 11:40:53;;;;;;;24.93;14.90;;;;;;;7.42;nan;98074.59;5075706;28;20608;-71